createdAt,value
2023-04-15T00:02:36.689Z,8.89
2023-04-15T00:05:34.523Z,9.29
2023-04-15T00:08:01.735Z,9.29
2023-04-15T00:10:28.823Z,9.05
2023-04-15T00:12:55.809Z,8.71
2023-04-15T00:15:22.764Z,8.96
2023-04-15T00:17:52.209Z,9.03
2023-04-15T00:20:39.534Z,8.88
2023-04-15T00:23:40.511Z,9.10
2023-04-15T00:26:21.106Z,8.93
2023-04-15T00:28:50.038Z,8.74
2023-04-15T00:31:17.154Z,9.12
2023-04-15T00:33:44.762Z,9.11
2023-04-15T00:36:11.713Z,8.67
2023-04-15T00:38:38.614Z,8.76
2023-04-15T00:41:05.530Z,8.73
2023-04-15T00:43:32.736Z,9.06
2023-04-15T00:46:01.079Z,7.98
2023-04-15T00:48:28.512Z,8.50
2023-04-15T00:50:55.590Z,8.99
2023-04-15T00:53:23.012Z,9.13
2023-04-15T00:55:50.312Z,8.81
2023-04-15T00:58:17.723Z,8.77
2023-04-15T01:00:45.057Z,8.61
2023-04-15T01:03:12.169Z,8.06
2023-04-15T01:05:39.432Z,8.56
2023-04-15T01:08:06.835Z,8.04
2023-04-15T01:10:33.806Z,8.42
2023-04-15T01:13:01.325Z,8.55
2023-04-15T01:15:28.304Z,8.55
2023-04-15T01:17:55.344Z,8.50
2023-04-15T01:20:43.573Z,8.51
2023-04-15T01:23:45.543Z,8.13
2023-04-15T01:26:26.463Z,7.75
2023-04-15T01:28:53.323Z,7.84
2023-04-15T01:31:21.235Z,8.07
2023-04-15T01:33:48.543Z,8.27
2023-04-15T01:36:34.458Z,8.44
2023-04-15T01:39:01.715Z,7.78
2023-04-15T01:41:29.133Z,7.79
2023-04-15T01:43:56.049Z,8.06
2023-04-15T01:46:23.303Z,8.09
2023-04-15T01:48:50.315Z,7.37
2023-04-15T01:51:17.629Z,7.28
2023-04-15T01:53:44.731Z,7.23
2023-04-15T01:56:11.961Z,7.62
2023-04-15T01:58:40.533Z,7.67
2023-04-15T02:01:07.912Z,7.35
2023-04-15T02:03:35.118Z,7.58
2023-04-15T02:06:02.596Z,7.47
2023-04-15T02:08:29.824Z,6.44
2023-04-15T02:10:56.920Z,7.43
2023-04-15T02:13:25.494Z,7.02
2023-04-15T02:15:53.096Z,7.19
2023-04-15T02:18:40.582Z,7.18
2023-04-15T02:21:41.582Z,7.38
2023-04-15T02:24:44.674Z,7.61
2023-04-15T02:27:19.469Z,7.54
2023-04-15T02:29:46.575Z,7.32
2023-04-15T02:32:14.113Z,7.21
2023-04-15T02:34:42.896Z,7.64
2023-04-15T02:37:11.431Z,7.52
2023-04-15T02:39:38.991Z,7.54
2023-04-15T02:42:06.320Z,7.63
2023-04-15T02:44:35.313Z,7.45
2023-04-15T02:47:06.174Z,6.65
2023-04-15T02:49:33.956Z,6.56
2023-04-15T02:52:01.058Z,6.07
2023-04-15T02:54:31.048Z,6.77
2023-04-15T02:56:58.157Z,6.82
2023-04-15T02:59:25.440Z,6.49
2023-04-15T03:01:52.498Z,6.66
2023-04-15T03:04:19.720Z,6.67
2023-04-15T03:06:46.963Z,7.35
2023-04-15T03:09:13.996Z,7.02
2023-04-15T03:11:42.208Z,6.77
2023-04-15T03:14:10.089Z,6.71
2023-04-15T03:16:41.355Z,6.51
2023-04-15T03:19:08.593Z,6.30
2023-04-15T03:21:55.678Z,6.34
2023-04-15T03:24:56.662Z,6.30
2023-04-15T03:27:38.496Z,6.94
2023-04-15T03:30:07.821Z,5.96
2023-04-15T03:32:37.256Z,6.48
2023-04-15T03:35:06.592Z,6.53
2023-04-15T03:37:33.511Z,6.57
2023-04-15T03:40:00.642Z,6.35
2023-04-15T03:42:27.548Z,6.58
2023-04-15T03:44:54.631Z,6.69
2023-04-15T03:47:21.720Z,6.35
2023-04-15T03:49:48.722Z,6.26
2023-04-15T03:52:15.690Z,6.60
2023-04-15T03:54:42.588Z,6.44
2023-04-15T03:57:09.590Z,6.02
2023-04-15T03:59:36.503Z,6.60
2023-04-15T04:02:03.513Z,6.47
2023-04-15T04:04:30.723Z,6.56
2023-04-15T04:06:57.697Z,6.53
2023-04-15T04:09:24.819Z,6.34
2023-04-15T04:11:52.070Z,6.00
2023-04-15T04:14:19.089Z,6.80
2023-04-15T04:16:46.049Z,6.96
2023-04-15T04:19:21.692Z,6.37
2023-04-15T04:22:22.641Z,6.95
2023-04-15T04:25:23.717Z,7.16
2023-04-15T04:28:04.550Z,7.13
2023-04-15T04:30:31.696Z,6.97
2023-04-15T04:32:58.829Z,6.69
2023-04-15T04:35:25.911Z,6.51
2023-04-15T04:37:53.841Z,6.19
2023-04-15T04:40:20.847Z,6.17
2023-04-15T04:42:47.791Z,6.46
2023-04-15T04:45:15.211Z,6.90
2023-04-15T04:47:42.298Z,6.44
2023-04-15T04:50:10.603Z,7.20
2023-04-15T04:52:38.208Z,7.39
2023-04-15T04:55:05.987Z,6.87
2023-04-15T04:57:32.930Z,7.22
2023-04-15T04:59:59.842Z,6.70
2023-04-15T05:02:27.799Z,7.33
2023-04-15T05:04:54.967Z,7.31
2023-04-15T05:07:22.229Z,8.14
2023-04-15T05:09:49.272Z,8.68
2023-04-15T05:12:16.250Z,8.26
2023-04-15T05:14:43.221Z,8.17
2023-04-15T05:17:11.232Z,8.89
2023-04-15T05:19:58.692Z,9.56
2023-04-15T05:22:59.705Z,10.37
2023-04-15T05:26:00.683Z,10.30
2023-04-15T05:29:02.014Z,10.38
2023-04-15T05:31:50.701Z,9.86
2023-04-15T05:34:34.403Z,10.05
2023-04-15T05:37:02.432Z,9.43
2023-04-15T05:39:29.477Z,10.58
2023-04-15T05:41:57.716Z,12.00
2023-04-15T05:44:24.672Z,12.23
2023-04-15T05:46:51.669Z,11.87
2023-04-15T05:49:18.526Z,12.79
2023-04-15T05:51:47.457Z,12.30
2023-04-15T05:54:14.351Z,10.67
2023-04-15T05:56:41.252Z,10.34
2023-04-15T05:59:08.737Z,10.28
2023-04-15T06:01:35.715Z,10.08
2023-04-15T06:04:03.108Z,10.35
2023-04-15T06:06:30.210Z,10.14
2023-04-15T06:08:57.569Z,9.21
2023-04-15T06:11:24.830Z,9.63
2023-04-15T06:13:51.690Z,10.04
2023-04-15T06:16:38.926Z,9.43
2023-04-15T06:19:19.610Z,9.15
2023-04-15T06:22:06.730Z,9.24
2023-04-15T06:25:07.693Z,9.23
2023-04-15T06:27:48.467Z,9.47
2023-04-15T06:30:15.359Z,9.31
2023-04-15T06:33:03.065Z,9.71
2023-04-15T06:35:43.318Z,9.80
2023-04-15T06:38:10.862Z,10.66
2023-04-15T06:40:57.728Z,10.52
2023-04-15T06:43:39.229Z,10.35
2023-04-15T06:46:06.451Z,10.36
2023-04-15T06:48:33.404Z,10.42
2023-04-15T06:51:00.597Z,10.79
2023-04-15T06:53:28.130Z,10.79
2023-04-15T06:55:55.733Z,11.03
2023-04-15T06:58:22.869Z,11.63
2023-04-15T07:00:49.880Z,11.69
2023-04-15T07:03:17.052Z,12.45
2023-04-15T07:05:43.960Z,13.57
2023-04-15T07:08:10.907Z,14.25
2023-04-15T07:10:38.219Z,13.29
2023-04-15T07:13:05.882Z,13.69
2023-04-15T07:15:32.866Z,13.67
2023-04-15T07:18:20.783Z,13.68
2023-04-15T07:21:21.735Z,13.66
2023-04-15T07:24:02.335Z,14.06
2023-04-15T07:26:29.323Z,13.76
2023-04-15T07:28:56.409Z,13.01
2023-04-15T07:31:23.639Z,13.21
2023-04-15T07:33:52.133Z,13.67
2023-04-15T07:36:25.932Z,14.41
2023-04-15T07:38:53.906Z,12.44
2023-04-15T07:41:40.765Z,13.39
2023-04-15T07:44:41.804Z,13.99
2023-04-15T07:47:42.830Z,14.24
2023-04-15T07:50:43.780Z,13.88
2023-04-15T07:53:44.923Z,13.91
2023-04-15T07:56:45.754Z,13.81
2023-04-15T07:59:27.796Z,14.09
2023-04-15T08:01:55.322Z,14.63
2023-04-15T08:04:22.678Z,14.85
2023-04-15T08:06:50.475Z,13.71
2023-04-15T08:09:30.821Z,13.92
2023-04-15T08:12:13.538Z,13.59
2023-04-15T08:14:40.796Z,13.64
2023-04-15T08:17:07.874Z,14.69
2023-04-15T08:19:54.816Z,15.12
2023-04-15T08:22:58.776Z,16.22
2023-04-15T08:25:39.432Z,16.51
2023-04-15T08:28:07.500Z,15.53
2023-04-15T08:30:34.714Z,14.84
2023-04-15T08:33:21.834Z,15.49
2023-04-15T08:36:02.626Z,15.22
2023-04-15T08:38:29.757Z,14.21
2023-04-15T08:41:25.902Z,14.63
2023-04-15T08:44:11.043Z,15.96
2023-04-15T08:46:40.128Z,15.20
2023-04-15T08:49:11.036Z,16.51
2023-04-15T08:51:57.824Z,16.34
2023-04-15T08:54:58.812Z,16.15
2023-04-15T08:57:40.034Z,16.48
2023-04-15T09:00:10.189Z,16.20
2023-04-15T09:02:37.647Z,16.41
2023-04-15T09:05:07.228Z,15.49
2023-04-15T09:07:36.553Z,17.48
2023-04-15T09:10:04.624Z,17.30
2023-04-15T09:12:36.255Z,15.78
2023-04-15T09:15:22.875Z,14.83
2023-04-15T09:18:16.077Z,15.14
2023-04-15T09:21:08.656Z,16.17
2023-04-15T09:24:14.910Z,15.53
2023-04-15T09:26:58.354Z,16.62
2023-04-15T09:29:28.615Z,16.25
2023-04-15T09:31:55.878Z,16.53
2023-04-15T09:34:36.240Z,17.27
2023-04-15T09:37:04.540Z,16.50
2023-04-15T09:39:51.459Z,16.21
2023-04-15T09:42:24.766Z,16.44
2023-04-15T09:44:53.154Z,16.44
2023-04-15T09:47:41.844Z,16.07
2023-04-15T09:50:42.847Z,17.23
2023-04-15T09:53:24.620Z,17.16
2023-04-15T09:56:15.873Z,17.49
2023-04-15T09:59:16.942Z,16.58
2023-04-15T10:01:59.603Z,15.97
2023-04-15T10:04:28.740Z,15.71
2023-04-15T10:06:57.172Z,16.16
2023-04-15T10:09:24.951Z,14.62
2023-04-15T10:11:52.966Z,14.83
2023-04-15T10:14:21.146Z,16.21
2023-04-15T10:17:10.867Z,17.31
2023-04-15T10:20:13.874Z,16.56
2023-04-15T10:23:15.910Z,16.85
2023-04-15T10:25:59.083Z,15.77
2023-04-15T10:28:29.055Z,16.52
2023-04-15T10:30:57.627Z,16.18
2023-04-15T10:33:26.165Z,16.55
2023-04-15T10:35:55.887Z,15.06
2023-04-15T10:38:40.807Z,16.57
2023-04-15T10:41:22.063Z,15.17
2023-04-15T10:43:54.995Z,16.47
2023-04-15T10:46:38.858Z,14.48
2023-04-15T10:49:17.699Z,14.89
2023-04-15T10:51:53.541Z,14.53
2023-04-15T10:54:25.471Z,16.32
2023-04-15T10:57:14.826Z,16.56
2023-04-15T11:00:01.283Z,16.55
2023-04-15T11:03:07.734Z,16.42
2023-04-15T11:05:39.848Z,16.23
2023-04-15T11:08:07.043Z,17.08
2023-04-15T11:10:33.997Z,17.48
2023-04-15T11:13:04.350Z,17.56
2023-04-15T11:15:56.048Z,17.83
2023-04-15T11:19:07.893Z,17.07
2023-04-15T11:22:08.926Z,17.59
2023-04-15T11:24:53.214Z,17.70
2023-04-15T11:27:26.399Z,17.33
2023-04-15T11:29:53.622Z,18.48
2023-04-15T11:32:22.125Z,19.56
2023-04-15T11:34:49.948Z,19.11
2023-04-15T11:37:17.293Z,18.34
2023-04-15T11:40:05.003Z,17.82
2023-04-15T11:42:49.432Z,18.15
2023-04-15T11:45:17.832Z,18.43
2023-04-15T11:47:45.050Z,17.69
2023-04-15T11:50:33.908Z,17.52
2023-04-15T11:53:14.842Z,17.03
2023-04-15T11:55:53.837Z,17.72
2023-04-15T11:58:23.894Z,17.80
2023-04-15T12:00:55.511Z,17.79
2023-04-15T12:03:28.624Z,17.46
2023-04-15T12:06:24.920Z,17.32
2023-04-15T12:09:07.637Z,17.20
2023-04-15T12:11:43.956Z,16.73
2023-04-15T12:14:20.218Z,17.17
2023-04-15T12:16:54.259Z,17.27
2023-04-15T12:19:38.961Z,18.07
2023-04-15T12:22:40.967Z,17.57
2023-04-15T12:25:49.000Z,18.28
2023-04-15T12:28:45.942Z,18.95
2023-04-15T12:31:26.569Z,19.14
2023-04-15T12:33:56.729Z,19.97
2023-04-15T12:36:24.173Z,20.16
2023-04-15T12:38:51.344Z,19.71
2023-04-15T12:41:41.054Z,17.87
2023-04-15T12:44:24.097Z,19.06
2023-04-15T12:46:53.619Z,18.57
2023-04-15T12:49:21.971Z,19.05
2023-04-15T12:51:50.465Z,18.45
2023-04-15T12:54:18.594Z,18.10
2023-04-15T12:56:47.204Z,18.33
2023-04-15T12:59:34.007Z,18.15
2023-04-15T13:02:15.900Z,18.31
2023-04-15T13:04:43.150Z,18.51
2023-04-15T13:07:30.328Z,19.53
2023-04-15T13:10:11.918Z,18.20
2023-04-15T13:12:53.991Z,17.57
2023-04-15T13:15:34.852Z,17.83
2023-04-15T13:18:02.095Z,18.56
2023-04-15T13:24:05.498Z,18.82
2023-04-15T13:26:45.984Z,18.16
2023-04-15T13:29:33.032Z,19.06
2023-04-15T13:32:13.856Z,19.22
2023-04-15T13:34:41.508Z,18.46
2023-04-15T13:37:16.203Z,17.75
2023-04-15T13:39:44.041Z,16.44
2023-04-15T13:42:11.793Z,17.05
2023-04-15T13:44:59.113Z,16.66
2023-04-15T13:47:41.476Z,17.57
2023-04-15T13:50:09.002Z,17.14
2023-04-15T13:52:40.180Z,17.15
2023-04-15T13:55:21.852Z,17.56
2023-04-15T13:57:50.689Z,17.59
2023-04-15T14:00:18.262Z,16.73
2023-04-15T14:02:47.194Z,16.48
2023-04-15T14:05:34.051Z,17.50
2023-04-15T14:08:36.980Z,18.10
2023-04-15T14:11:26.491Z,17.53
2023-04-15T14:13:53.640Z,17.58
2023-04-15T14:16:20.885Z,17.28
2023-04-15T14:18:48.368Z,16.39
2023-04-15T14:21:37.008Z,17.37
2023-04-15T14:24:48.067Z,17.97
2023-04-15T14:27:29.361Z,17.63
2023-04-15T14:29:58.058Z,17.32
2023-04-15T14:32:45.143Z,17.78
2023-04-15T14:35:48.547Z,17.78
2023-04-15T14:38:38.519Z,17.59
2023-04-15T14:41:12.813Z,17.67
2023-04-15T14:43:40.494Z,17.46
2023-04-15T14:46:28.384Z,17.52
2023-04-15T14:49:29.058Z,17.52
2023-04-15T14:52:13.423Z,17.41
2023-04-15T14:55:08.174Z,17.15
2023-04-15T14:57:49.890Z,17.73
2023-04-15T15:00:20.076Z,17.86
2023-04-15T15:02:49.796Z,17.18
2023-04-15T15:05:17.905Z,16.45
2023-04-15T15:11:31.870Z,16.85
2023-04-15T15:14:47.214Z,18.70
2023-04-15T15:17:23.727Z,16.98
2023-04-15T15:20:56.151Z,18.78
2023-04-15T15:24:45.053Z,18.12
2023-04-15T15:27:47.452Z,16.38
2023-04-15T15:30:19.509Z,16.91
2023-04-15T15:32:49.175Z,17.23
2023-04-15T15:35:42.769Z,17.24
2023-04-15T15:40:00.316Z,17.88
2023-04-15T15:42:40.851Z,17.50
2023-04-15T15:45:08.189Z,17.88
2023-04-15T15:47:38.861Z,17.16
2023-04-15T15:50:07.019Z,17.06
2023-04-15T15:52:37.784Z,17.25
2023-04-15T15:55:26.332Z,17.90
2023-04-15T15:58:07.151Z,17.43
2023-04-15T16:00:39.674Z,17.03
2023-04-15T16:03:08.097Z,17.33
2023-04-15T16:05:36.956Z,15.79
2023-04-15T16:08:24.222Z,17.38
2023-04-15T16:11:05.013Z,17.17
2023-04-15T16:13:35.824Z,16.82
2023-04-15T16:18:49.465Z,17.18
2023-04-15T16:21:36.142Z,16.52
2023-04-15T16:24:37.152Z,17.33
2023-04-15T16:27:50.244Z,17.30
2023-04-15T16:30:41.719Z,17.01
2023-04-15T16:33:11.256Z,17.48
2023-04-15T16:35:38.671Z,17.12
2023-04-15T16:38:06.736Z,16.23
2023-04-15T16:40:34.108Z,16.88
2023-04-15T16:43:01.702Z,15.51
2023-04-15T16:45:29.805Z,17.10
2023-04-15T16:47:57.384Z,16.21
2023-04-15T16:50:24.801Z,16.48
2023-04-15T16:52:53.126Z,17.04
2023-04-15T16:55:20.726Z,16.22
2023-04-15T16:58:00.722Z,16.69
2023-04-15T17:00:28.865Z,17.57
2023-04-15T17:02:56.251Z,17.31
2023-04-15T17:05:23.548Z,17.47
2023-04-15T17:07:50.819Z,17.41
2023-04-15T17:10:18.105Z,16.97
2023-04-15T17:12:45.149Z,17.24
2023-04-15T17:15:12.197Z,17.34
2023-04-15T17:17:43.552Z,16.93
2023-04-15T17:20:31.157Z,16.70
2023-04-15T17:23:32.225Z,16.72
2023-04-15T17:26:25.975Z,17.05
2023-04-15T17:28:54.555Z,16.84
2023-04-15T17:31:27.069Z,16.72
2023-04-15T17:34:15.882Z,16.21
2023-04-15T17:37:03.686Z,15.84
2023-04-15T17:39:50.632Z,15.80
2023-04-15T17:42:37.572Z,15.10
2023-04-15T17:45:24.581Z,15.39
2023-04-15T17:48:11.640Z,15.52
2023-04-15T17:50:58.561Z,15.33
2023-04-15T17:53:45.473Z,14.08
2023-04-15T17:56:33.872Z,12.90
2023-04-15T17:59:41.174Z,13.05
2023-04-15T18:02:41.870Z,12.94
2023-04-15T18:05:29.782Z,12.81
2023-04-15T18:08:16.701Z,12.35
2023-04-15T18:11:03.613Z,12.33
2023-04-15T18:13:50.663Z,12.47
2023-04-15T18:16:40.223Z,12.53
2023-04-15T18:19:27.467Z,12.14
2023-04-15T18:22:14.179Z,12.33
2023-04-15T18:25:15.218Z,12.74
2023-04-15T18:28:09.253Z,12.67
2023-04-15T18:30:49.738Z,12.89
2023-04-15T18:33:16.846Z,13.10
2023-04-15T18:35:44.479Z,13.02
2023-04-15T18:38:11.629Z,12.63
2023-04-15T18:40:39.348Z,11.20
2023-04-15T18:43:06.918Z,12.99
2023-04-15T18:45:34.321Z,12.62
2023-04-15T18:48:03.052Z,12.83
2023-04-15T18:50:30.132Z,12.76
2023-04-15T18:53:17.249Z,12.64
2023-04-15T18:56:18.252Z,12.85
2023-04-15T18:59:28.912Z,12.83
2023-04-15T19:01:59.756Z,13.08
2023-04-15T19:04:29.500Z,13.06
2023-04-15T19:07:19.375Z,13.09
2023-04-15T19:10:21.001Z,12.72
2023-04-15T19:13:03.233Z,12.20
2023-04-15T19:15:32.269Z,12.59
2023-04-15T19:17:59.482Z,12.43
2023-04-15T19:20:47.440Z,13.02
2023-04-15T19:23:27.985Z,12.87
2023-04-15T19:25:55.169Z,12.92
2023-04-15T19:28:22.796Z,12.47
2023-04-15T19:30:49.888Z,12.91
2023-04-15T19:33:17.164Z,13.03
2023-04-15T19:35:44.213Z,12.76
2023-04-15T19:38:12.221Z,12.62
2023-04-15T19:40:39.194Z,13.09
2023-04-15T19:43:09.922Z,12.96
2023-04-15T19:45:38.133Z,12.80
2023-04-15T19:48:06.995Z,12.69
2023-04-15T19:50:37.287Z,12.41
2023-04-15T19:53:18.574Z,12.44
2023-04-15T19:56:19.511Z,13.31
2023-04-15T19:59:19.566Z,13.05
2023-04-15T20:01:50.231Z,13.06
2023-04-15T20:04:21.093Z,13.03
2023-04-15T20:07:08.413Z,13.10
2023-04-15T20:09:49.186Z,12.18
2023-04-15T20:12:51.498Z,13.11
2023-04-15T20:15:10.760Z,12.94
2023-04-15T20:17:38.228Z,11.31
2023-04-15T20:20:25.308Z,12.56
2023-04-15T20:23:12.796Z,13.02
2023-04-15T20:25:41.124Z,12.05
2023-04-15T20:28:14.865Z,12.45
2023-04-15T20:30:45.523Z,12.37
2023-04-15T20:33:14.683Z,12.69
2023-04-15T20:35:47.590Z,12.13
2023-04-15T20:38:17.116Z,11.67
2023-04-15T20:40:44.216Z,12.65
2023-04-15T20:43:11.776Z,13.33
2023-04-15T20:45:39.217Z,13.23
2023-04-15T20:48:06.572Z,12.65
2023-04-15T20:50:33.744Z,13.13
2023-04-15T20:53:21.337Z,12.85
2023-04-15T20:56:22.347Z,13.01
2023-04-15T20:59:16.664Z,12.90
2023-04-15T21:01:43.687Z,12.61
2023-04-15T21:04:31.352Z,12.80
2023-04-15T21:07:32.261Z,12.53
2023-04-15T21:10:12.886Z,12.71
2023-04-15T21:12:41.177Z,12.46
2023-04-15T21:15:09.093Z,12.83
2023-04-15T21:17:36.145Z,12.89
2023-04-15T21:20:23.309Z,13.02
2023-04-15T21:23:10.805Z,12.58
2023-04-15T21:25:38.815Z,13.00
2023-04-15T21:28:05.917Z,12.37
2023-04-15T21:30:32.946Z,12.63
2023-04-15T21:32:59.985Z,12.19
2023-04-15T21:35:28.803Z,11.46
2023-04-15T21:37:56.131Z,11.64
2023-04-15T21:40:23.317Z,11.55
2023-04-15T21:43:10.325Z,12.34
2023-04-15T21:46:21.159Z,12.47
2023-04-15T21:48:37.713Z,12.61
2023-04-15T21:51:05.000Z,12.41
2023-04-15T21:53:32.085Z,12.54
2023-04-15T21:55:59.151Z,11.74
2023-04-15T21:58:26.308Z,12.14
2023-04-15T22:00:57.520Z,12.39
2023-04-15T22:03:24.764Z,12.37
2023-04-15T22:05:51.853Z,12.10
2023-04-15T22:08:18.934Z,11.63
2023-04-15T22:10:46.763Z,12.03
2023-04-15T22:13:14.449Z,11.45
2023-04-15T22:15:42.198Z,11.40
2023-04-15T22:18:09.436Z,11.86
2023-04-15T22:20:49.502Z,11.51
2023-04-15T22:23:43.342Z,11.43
2023-04-15T22:26:24.302Z,11.62
2023-04-15T22:28:51.730Z,11.04
2023-04-15T22:31:18.676Z,11.39
2023-04-15T22:33:45.684Z,11.33
2023-04-15T22:36:13.673Z,11.50
2023-04-15T22:38:40.868Z,11.41
2023-04-15T22:41:07.994Z,11.41
2023-04-15T22:43:34.990Z,11.43
2023-04-15T22:46:02.380Z,11.20
2023-04-15T22:48:29.453Z,11.61
2023-04-15T22:50:56.887Z,11.45
2023-04-15T22:53:44.358Z,11.63
2023-04-15T22:56:25.154Z,11.30
2023-04-15T22:58:52.284Z,11.13
2023-04-15T23:01:20.800Z,11.30
2023-04-15T23:04:03.458Z,11.05
2023-04-15T23:06:37.452Z,11.42
2023-04-15T23:09:04.600Z,10.84
2023-04-15T23:11:31.799Z,10.99
2023-04-15T23:13:58.804Z,10.98
2023-04-15T23:16:26.163Z,11.27
2023-04-15T23:18:53.197Z,11.35
2023-04-15T23:21:40.379Z,11.28
2023-04-15T23:24:41.353Z,11.33
2023-04-15T23:27:22.926Z,11.18
2023-04-15T23:29:49.889Z,9.96
2023-04-15T23:32:16.956Z,10.53
2023-04-15T23:34:43.933Z,10.84
2023-04-15T23:37:11.498Z,11.19
2023-04-15T23:39:38.496Z,11.10
2023-04-15T23:42:25.437Z,10.97
2023-04-15T23:45:06.718Z,11.06
2023-04-15T23:47:33.681Z,10.67
2023-04-15T23:50:00.719Z,10.61
2023-04-15T23:52:27.916Z,11.16
2023-04-15T23:54:54.858Z,10.78
2023-04-15T23:57:21.915Z,10.83
2023-04-15T23:59:48.857Z,10.88
